Time;durP1;ratioP1;P1;durP2;ratioP2;P2;SDS_P1;SDS_P2;PMS_P1;PMS_P2;Temp;Humidity;BMP_temperature;BMP_pressure;BME280_temperature;BME280_humidity;BME280_pressure;Samples;Min_cycle;Max_cycle;Signal;HPM_P1;HPM_P2
2021/12/02 00:01:53;;;;;;;;;1.50;1.00;;;;;;;;5118363;27;13409;-74
2021/12/02 00:04:18;;;;;;;;;2.00;2.00;;;;;;;;5121560;27;8790;-74
2021/12/02 00:06:43;;;;;;;;;;;;;;;;;;5124121;27;10387;-73
2021/12/02 00:09:09;;;;;;;;;2.00;2.00;;;;;;;;5121256;28;21354;-73
2021/12/02 00:11:34;;;;;;;;;4.25;1.75;;;;;;;;5119324;27;20991;-73
2021/12/02 00:14:05;;;;;;;;;4.50;3.25;;;;;;;;5121335;27;11348;-74
2021/12/02 00:21:42;;;;;;;;;2.75;2.75;;;;;;;;5121103;28;10323;-73
2021/12/02 00:24:08;;;;;;;;;4.00;4.00;;;;;;;;5121024;27;11492;-73
2021/12/02 00:26:38;;;;;;;;;3.75;3.75;;;;;;;;5121115;27;11446;-73
2021/12/02 00:29:05;;;;;;;;;4.75;4.75;;;;;;;;5120649;27;11599;-72
2021/12/02 00:31:31;;;;;;;;;3.75;3.75;;;;;;;;5120752;27;11421;-72
2021/12/02 00:34:05;;;;;;;;;5.25;4.00;;;;;;;;5121647;27;12257;-73
2021/12/02 00:36:31;;;;;;;;;5.00;2.00;;;;;;;;5120555;27;11530;-73
2021/12/02 00:38:57;;;;;;;;;2.25;1.75;;;;;;;;5121355;27;11467;-73
2021/12/02 00:41:24;;;;;;;;;1.00;1.00;;;;;;;;5121682;27;12138;-73
2021/12/02 00:43:50;;;;;;;;;1.00;1.00;;;;;;;;5120576;27;11787;-72
2021/12/02 00:46:17;;;;;;;;;0.00;0.00;;;;;;;;5120440;27;11436;-73
2021/12/02 00:48:43;;;;;;;;;0.00;0.00;;;;;;;;5120099;27;11459;-72
2021/12/02 00:51:09;;;;;;;;;0.50;0.50;;;;;;;;5120649;27;11536;-73
2021/12/02 00:53:36;;;;;;;;;0.75;0.50;;;;;;;;5120395;27;9193;-74
2021/12/02 00:56:05;;;;;;;;;1.00;1.00;;;;;;;;5120804;27;11546;-73
2021/12/02 00:58:32;;;;;;;;;0.00;0.00;;;;;;;;5120047;27;11430;-73
2021/12/02 01:00:57;;;;;;;;;0.00;0.00;;;;;;;;5120454;27;11587;-73
2021/12/02 01:03:24;;;;;;;;;1.75;1.00;;;;;;;;5119147;28;11592;-73
2021/12/02 01:05:50;;;;;;;;;3.00;1.25;;;;;;;;5119983;27;10842;-72
2021/12/02 01:08:15;;;;;;;;;1.25;0.75;;;;;;;;5119440;27;11440;-73
2021/12/02 01:10:41;;;;;;;;;2.75;2.50;;;;;;;;5119883;27;10280;-72
2021/12/02 01:13:06;;;;;;;;;1.00;1.00;;;;;;;;5119924;27;11686;-73
2021/12/02 01:15:32;;;;;;;;;1.75;1.50;;;;;;;;5118821;28;11642;-74
2021/12/02 01:17:57;;;;;;;;;1.00;1.00;;;;;;;;5119798;27;8898;-73
2021/12/02 01:20:22;;;;;;;;;1.00;1.00;;;;;;;;5120314;27;8778;-73
2021/12/02 01:22:49;;;;;;;;;1.00;1.00;;;;;;;;5119851;27;8811;-73
2021/12/02 01:25:17;;;;;;;;;1.00;1.00;;;;;;;;5119355;27;8798;-72
2021/12/02 01:27:43;;;;;;;;;1.00;1.00;;;;;;;;5120199;27;11496;-74
2021/12/02 01:30:09;;;;;;;;;1.50;0.00;;;;;;;;5120185;27;11430;-74
2021/12/02 01:32:37;;;;;;;;;0.00;0.00;;;;;;;;5119887;27;11449;-72
2021/12/02 01:35:04;;;;;;;;;0.25;0.25;;;;;;;;5120112;27;8914;-72
2021/12/02 01:37:29;;;;;;;;;1.50;0.00;;;;;;;;5119701;27;11438;-72
2021/12/02 01:39:55;;;;;;;;;1.00;0.75;;;;;;;;5119377;27;11593;-73
2021/12/02 01:42:26;;;;;;;;;0.50;0.50;;;;;;;;5119863;27;8806;-73
2021/12/02 01:44:52;;;;;;;;;0.00;0.00;;;;;;;;5120086;27;11581;-73
2021/12/02 01:47:21;;;;;;;;;0.75;0.75;;;;;;;;5117209;28;11462;-73
2021/12/02 01:49:51;;;;;;;;;0.25;0.25;;;;;;;;5120150;27;11419;-73
2021/12/02 01:52:19;;;;;;;;;0.00;0.00;;;;;;;;5119611;27;12508;-73
2021/12/02 01:54:45;;;;;;;;;1.00;1.00;;;;;;;;5119110;27;11500;-73
2021/12/02 01:57:19;;;;;;;;;0.00;0.00;;;;;;;;5118384;28;11557;-73
2021/12/02 01:59:47;;;;;;;;;0.00;0.00;;;;;;;;5119320;27;11421;-73
2021/12/02 02:02:15;;;;;;;;;1.50;0.50;;;;;;;;5119419;27;11431;-72
2021/12/02 02:04:41;;;;;;;;;0.00;0.00;;;;;;;;5119874;27;11816;-72
2021/12/02 02:07:10;;;;;;;;;0.00;0.00;;;;;;;;5119118;27;11465;-72
2021/12/02 02:09:35;;;;;;;;;0.25;0.25;;;;;;;;5119801;27;8887;-72
2021/12/02 02:12:02;;;;;;;;;0.50;0.50;;;;;;;;5119548;27;11593;-73
2021/12/02 02:14:29;;;;;;;;;0.00;0.00;;;;;;;;5119324;27;8743;-72
2021/12/02 02:16:55;;;;;;;;;0.50;0.50;;;;;;;;5118829;27;11445;-72
2021/12/02 02:19:21;;;;;;;;;0.00;0.00;;;;;;;;5119670;27;11426;-72
2021/12/02 02:21:46;;;;;;;;;1.00;0.50;;;;;;;;5119432;27;11521;-72
2021/12/02 02:24:14;;;;;;;;;0.50;0.00;;;;;;;;5119242;27;11723;-73
2021/12/02 02:26:40;;;;;;;;;0.00;0.00;;;;;;;;5119688;27;11467;-73
2021/12/02 02:29:05;;;;;;;;;;;;;;;;;;5121959;27;11462;-73
2021/12/02 02:31:31;;;;;;;;;0.50;0.50;;;;;;;;5119737;28;20175;-72
2021/12/02 02:33:57;;;;;;;;;0.00;0.00;;;;;;;;5119448;27;21838;-72
2021/12/02 02:36:24;;;;;;;;;0.50;0.00;;;;;;;;5122599;27;8770;-72
2021/12/02 02:38:56;;;;;;;;;;;;;;;;;;5125049;27;8894;-72
2021/12/02 02:41:24;;;;;;;;;0.00;0.00;;;;;;;;5122315;27;21636;-72
2021/12/02 02:43:50;;;;;;;;;1.00;0.00;;;;;;;;5121394;27;22014;-73
2021/12/02 02:46:22;;;;;;;;;0.25;0.00;;;;;;;;5122716;27;11461;-73
2021/12/02 02:48:48;;;;;;;;;0.00;0.00;;;;;;;;5121528;27;11542;-73
2021/12/02 02:51:13;;;;;;;;;0.00;0.00;;;;;;;;5122147;27;11454;-74
2021/12/02 02:53:38;;;;;;;;;1.00;0.00;;;;;;;;5122669;27;8903;-74
2021/12/02 02:56:12;;;;;;;;;0.75;0.00;;;;;;;;5121977;27;8786;-73
2021/12/02 03:12:04;;;;;;;;;0.00;0.00;;;;;;;;5122634;27;11423;-72
2021/12/02 03:14:35;;;;;;;;;;;;;;;;;;5123567;27;8794;-71
2021/12/02 03:17:01;;;;;;;;;0.00;0.00;;;;;;;;5120931;27;20658;-72
2021/12/02 03:19:27;;;;;;;;;0.75;0.00;;;;;;;;5121981;27;20517;-72
2021/12/02 03:21:53;;;;;;;;;1.00;1.00;;;;;;;;5120659;28;8798;-72
2021/12/02 03:24:19;;;;;;;;;2.00;0.25;;;;;;;;5121651;28;11665;-72
2021/12/02 03:26:44;;;;;;;;;0.75;0.75;;;;;;;;5121451;27;11524;-71
2021/12/02 03:29:10;;;;;;;;;0.00;0.00;;;;;;;;5121546;27;10281;-72
2021/12/02 03:31:35;;;;;;;;;2.00;0.00;;;;;;;;5122283;27;8806;-72
2021/12/02 03:34:01;;;;;;;;;1.75;0.00;;;;;;;;5122382;27;8786;-72
2021/12/02 03:36:27;;;;;;;;;0.00;0.00;;;;;;;;5121390;27;8943;-71
2021/12/02 03:38:52;;;;;;;;;;;;;;;;;;5124116;27;9583;-71
2021/12/02 03:41:17;;;;;;;;;2.00;0.80;;;;;;;;5121266;28;20401;-72
2021/12/02 03:43:44;;;;;;;;;2.00;0.00;;;;;;;;5120924;27;20625;-72
2021/12/02 03:46:10;;;;;;;;;2.00;1.00;;;;;;;;5120735;27;8948;-72
2021/12/02 03:48:36;;;;;;;;;0.75;0.00;;;;;;;;5120206;28;11441;-72
2021/12/02 03:51:02;;;;;;;;;0.25;0.25;;;;;;;;5121898;27;11473;-72
2021/12/02 03:53:27;;;;;;;;;0.25;0.25;;;;;;;;5120926;27;8933;-72
2021/12/02 03:55:53;;;;;;;;;1.00;1.00;;;;;;;;5121599;27;11560;-72
2021/12/02 03:58:18;;;;;;;;;2.50;1.00;;;;;;;;5120834;27;11266;-72
2021/12/02 04:00:43;;;;;;;;;0.00;0.00;;;;;;;;5121218;27;8816;-72
2021/12/02 04:03:09;;;;;;;;;0.00;0.00;;;;;;;;5121269;27;10511;-72
2021/12/02 04:05:34;;;;;;;;;2.75;0.00;;;;;;;;5121213;27;8778;-73
2021/12/02 04:07:59;;;;;;;;;2.00;2.00;;;;;;;;5120826;27;8855;-72
2021/12/02 04:10:25;;;;;;;;;0.00;0.00;;;;;;;;5121687;27;10596;-73
2021/12/02 04:13:34;;;;;;;;;2.00;2.00;;;;;;;;5121456;27;9690;-71
2021/12/02 04:15:40;;;;;;;;;2.00;2.00;;;;;;;;5109411;28;8803;-72
2021/12/02 04:18:06;;;;;;;;;4.00;1.00;;;;;;;;5119719;28;11529;-72
2021/12/02 04:20:31;;;;;;;;;2.00;1.75;;;;;;;;5121255;27;11442;-73
2021/12/02 04:22:57;;;;;;;;;2.00;1.00;;;;;;;;5120715;27;11483;-72
2021/12/02 04:25:22;;;;;;;;;;;;;;;;;;5123691;27;9074;-70
2021/12/02 04:27:49;;;;;;;;;2.00;2.00;;;;;;;;5120702;28;20324;-72
2021/12/02 04:30:15;;;;;;;;;3.00;0.75;;;;;;;;5121192;27;20661;-72
2021/12/02 04:32:41;;;;;;;;;0.75;0.00;;;;;;;;5121089;27;11426;-72
2021/12/02 04:35:06;;;;;;;;;;;;;;;;;;5123049;27;12420;-72
2021/12/02 04:37:31;;;;;;;;;0.80;0.00;;;;;;;;5121046;28;20207;-72
2021/12/02 04:39:57;;;;;;;;;1.50;1.25;;;;;;;;5120018;27;20835;-72
2021/12/02 04:42:22;;;;;;;;;2.50;2.00;;;;;;;;5120539;27;11453;-72
2021/12/02 04:44:48;;;;;;;;;;;;;;;;;;5122549;27;11542;-72
2021/12/02 04:47:13;;;;;;;;;3.00;1.75;;;;;;;;5119694;28;20401;-72
2021/12/02 04:49:38;;;;;;;;;2.50;1.00;;;;;;;;5119895;27;20577;-72
2021/12/02 04:52:04;;;;;;;;;1.00;1.00;;;;;;;;5120005;27;11504;-72
2021/12/02 04:54:29;;;;;;;;;1.00;1.00;;;;;;;;5121197;27;8926;-72
2021/12/02 04:56:55;;;;;;;;;2.25;1.25;;;;;;;;5116911;27;13416;-72
2021/12/02 04:59:20;;;;;;;;;1.00;1.00;;;;;;;;5121019;27;11271;-72
2021/12/02 05:01:45;;;;;;;;;3.25;2.00;;;;;;;;5120348;27;11524;-72
2021/12/02 05:04:10;;;;;;;;;1.00;1.00;;;;;;;;5120466;28;10270;-72
2021/12/02 05:06:38;;;;;;;;;2.00;1.00;;;;;;;;5120357;28;10470;-72
2021/12/02 05:09:03;;;;;;;;;5.25;2.00;;;;;;;;5120024;27;8779;-72
2021/12/02 05:11:29;;;;;;;;;2.00;2.00;;;;;;;;5120564;27;12204;-71
2021/12/02 05:13:54;;;;;;;;;2.00;2.00;;;;;;;;5120613;27;8858;-71
2021/12/02 05:16:19;;;;;;;;;3.50;2.00;;;;;;;;5120735;27;8802;-72
2021/12/02 05:18:44;;;;;;;;;1.75;1.75;;;;;;;;5120216;27;8834;-72
2021/12/02 05:21:10;;;;;;;;;3.00;1.00;;;;;;;;5120257;27;11494;-72
2021/12/02 05:23:35;;;;;;;;;4.75;2.00;;;;;;;;5119900;27;11608;-72
2021/12/02 05:26:01;;;;;;;;;1.00;1.00;;;;;;;;5120560;27;10473;-71
2021/12/02 05:28:26;;;;;;;;;0.75;0.75;;;;;;;;5119854;27;10323;-71
2021/12/02 05:30:51;;;;;;;;;1.75;0.75;;;;;;;;5120025;27;11322;-72
2021/12/02 05:33:16;;;;;;;;;2.00;1.00;;;;;;;;5119753;27;8771;-72
2021/12/02 05:35:42;;;;;;;;;1.00;1.00;;;;;;;;5119728;27;11549;-72
2021/12/02 05:38:08;;;;;;;;;1.00;1.00;;;;;;;;5119785;27;8763;-73
2021/12/02 05:40:33;;;;;;;;;1.75;1.75;;;;;;;;5120645;27;8775;-71
2021/12/02 05:42:59;;;;;;;;;2.00;2.00;;;;;;;;5120415;27;8891;-71
2021/12/02 05:45:24;;;;;;;;;5.00;2.00;;;;;;;;5119986;27;11672;-72
2021/12/02 05:47:49;;;;;;;;;2.00;1.00;;;;;;;;5120146;27;8802;-72
2021/12/02 05:50:15;;;;;;;;;2.00;2.00;;;;;;;;5119934;27;9576;-72
2021/12/02 05:52:40;;;;;;;;;2.75;1.00;;;;;;;;5120055;27;8783;-72
2021/12/02 05:55:05;;;;;;;;;4.00;2.00;;;;;;;;5119994;27;9728;-72
2021/12/02 05:57:31;;;;;;;;;2.00;2.00;;;;;;;;5119316;27;10273;-72
2021/12/02 05:59:57;;;;;;;;;1.50;1.50;;;;;;;;5119655;27;8806;-71
2021/12/02 06:02:22;;;;;;;;;2.50;2.00;;;;;;;;5119725;27;11529;-72
2021/12/02 06:04:51;;;;;;;;;3.25;1.75;;;;;;;;5119980;27;12158;-71
2021/12/02 06:07:16;;;;;;;;;3.50;1.50;;;;;;;;5118945;27;12666;-71
2021/12/02 06:09:42;;;;;;;;;4.50;1.75;;;;;;;;5121205;27;11618;-72
2021/12/02 06:12:07;;;;;;;;;;;;;;;;;;5125141;27;11339;-73
2021/12/02 06:14:32;;;;;;;;;1.00;1.00;;;;;;;;5122689;28;20408;-72
2021/12/02 06:16:57;;;;;;;;;1.25;1.25;;;;;;;;5122737;27;20380;-72
2021/12/02 06:19:23;;;;;;;;;4.50;1.75;;;;;;;;5123593;27;8775;-72
2021/12/02 06:21:50;;;;;;;;;3.25;2.50;;;;;;;;5123379;27;10417;-72
2021/12/02 06:24:15;;;;;;;;;4.00;2.50;;;;;;;;5121529;28;11502;-71
2021/12/02 06:26:41;;;;;;;;;4.75;4.00;;;;;;;;5122660;27;11453;-73
2021/12/02 06:29:06;;;;;;;;;3.25;2.00;;;;;;;;5122942;27;10412;-72
2021/12/02 06:31:31;;;;;;;;;8.00;3.50;;;;;;;;5122804;27;9722;-72
2021/12/02 06:33:56;;;;;;;;;4.00;4.00;;;;;;;;5122776;28;11473;-72
2021/12/02 06:36:22;;;;;;;;;2.00;2.00;;;;;;;;5122759;27;12766;-72
2021/12/02 06:38:47;;;;;;;;;3.25;3.25;;;;;;;;5122317;28;8859;-73
2021/12/02 06:41:12;;;;;;;;;6.50;4.25;;;;;;;;5123218;28;11552;-72
2021/12/02 06:43:38;;;;;;;;;5.25;5.00;;;;;;;;5123422;27;11520;-72
2021/12/02 06:46:03;;;;;;;;;6.50;5.25;;;;;;;;5123232;27;11757;-73
2021/12/02 06:48:28;;;;;;;;;4.75;4.00;;;;;;;;5121965;27;11647;-73
2021/12/02 06:50:53;;;;;;;;;1.75;1.00;;;;;;;;5122952;28;11522;-75
2021/12/02 06:53:19;;;;;;;;;5.00;3.75;;;;;;;;5123463;28;8870;-78
2021/12/02 06:55:45;;;;;;;;;4.00;4.00;;;;;;;;5122621;28;11801;-77
2021/12/02 06:58:10;;;;;;;;;3.50;1.25;;;;;;;;5121196;28;12191;-74
2021/12/02 07:00:36;;;;;;;;;4.00;2.00;;;;;;;;5121022;28;11906;-72
2021/12/02 07:03:02;;;;;;;;;2.00;2.00;;;;;;;;5122981;27;11380;-74
2021/12/02 07:05:29;;;;;;;;;4.00;2.00;;;;;;;;5122627;27;8810;-72
2021/12/02 07:07:55;;;;;;;;;4.00;4.00;;;;;;;;5122369;27;8822;-79
2021/12/02 07:10:23;;;;;;;;;5.25;4.00;;;;;;;;5122172;27;11479;-76
2021/12/02 07:12:51;;;;;;;;;4.00;4.00;;;;;;;;5122875;27;9150;-76
2021/12/02 07:15:18;;;;;;;;;4.50;4.00;;;;;;;;5121002;27;11537;-74
2021/12/02 07:17:45;;;;;;;;;4.00;2.00;;;;;;;;5120977;27;11453;-74
2021/12/02 07:20:10;;;;;;;;;6.00;4.00;;;;;;;;5121438;27;11549;-75
2021/12/02 07:22:36;;;;;;;;;5.00;4.00;;;;;;;;5121444;27;11443;-74
2021/12/02 07:25:01;;;;;;;;;2.00;1.25;;;;;;;;5101885;28;8903;-74
2021/12/02 07:27:27;;;;;;;;;1.00;0.00;;;;;;;;5122037;27;11490;-74
2021/12/02 07:29:52;;;;;;;;;4.00;4.00;;;;;;;;5122204;27;11440;-74
2021/12/02 07:32:17;;;;;;;;;6.25;5.00;;;;;;;;5122392;28;9984;-74
2021/12/02 07:34:44;;;;;;;;;8.25;5.00;;;;;;;;5122240;27;10274;-74
2021/12/02 07:37:11;;;;;;;;;3.50;3.50;;;;;;;;5121694;27;8781;-75
2021/12/02 07:39:36;;;;;;;;;5.25;4.00;;;;;;;;5121581;27;11527;-74
2021/12/02 07:42:02;;;;;;;;;6.00;5.00;;;;;;;;5122393;27;11569;-76
2021/12/02 07:44:27;;;;;;;;;4.75;4.75;;;;;;;;5122020;27;10609;-76
2021/12/02 07:46:55;;;;;;;;;3.50;3.50;;;;;;;;5121475;27;12498;-75
2021/12/02 07:49:21;;;;;;;;;6.75;5.00;;;;;;;;5121431;27;11649;-75
2021/12/02 07:51:49;;;;;;;;;2.00;2.00;;;;;;;;5122147;27;11534;-75
2021/12/02 07:54:16;;;;;;;;;5.50;4.25;;;;;;;;5121645;27;10608;-81
2021/12/02 07:56:42;;;;;;;;;2.50;2.25;;;;;;;;5121954;27;11545;-78
2021/12/02 07:59:09;;;;;;;;;3.75;3.75;;;;;;;;5121884;27;11572;-77
2021/12/02 08:01:34;;;;;;;;;;;;;;;;;;5122473;28;12394;-78
2021/12/02 08:04:00;;;;;;;;;5.00;4.00;;;;;;;;5120144;28;22205;-78
2021/12/02 08:06:26;;;;;;;;;2.00;1.00;;;;;;;;5121313;27;20688;-78
2021/12/02 08:08:51;;;;;;;;;5.25;2.75;;;;;;;;5121501;27;8933;-78
2021/12/02 08:11:16;;;;;;;;;4.75;2.25;;;;;;;;5120269;28;11644;-78
2021/12/02 08:13:42;;;;;;;;;2.00;1.00;;;;;;;;5122124;27;10355;-79
2021/12/02 08:16:07;;;;;;;;;4.00;4.00;;;;;;;;5121663;27;11295;-79
2021/12/02 08:18:33;;;;;;;;;3.25;2.25;;;;;;;;5121547;27;9393;-78
2021/12/02 08:20:59;;;;;;;;;2.00;2.00;;;;;;;;5121490;27;11314;-78
2021/12/02 08:23:24;;;;;;;;;5.00;2.00;;;;;;;;5121715;27;11514;-78
2021/12/02 08:25:50;;;;;;;;;4.00;4.00;;;;;;;;5121175;27;8790;-78
2021/12/02 08:28:16;;;;;;;;;;;;;;;;;;5124097;27;8872;-77
2021/12/02 08:30:41;;;;;;;;;5.50;4.00;;;;;;;;5121593;28;21299;-76
2021/12/02 08:33:07;;;;;;;;;4.25;2.00;;;;;;;;5120096;27;21236;-76
2021/12/02 08:35:34;;;;;;;;;3.75;3.75;;;;;;;;5121387;27;10892;-78
2021/12/02 08:38:04;;;;;;;;;2.00;2.00;;;;;;;;5120650;27;11566;-77
2021/12/02 08:40:33;;;;;;;;;1.00;1.00;;;;;;;;5119759;27;11834;-76
2021/12/02 08:43:00;;;;;;;;;2.00;2.00;;;;;;;;5130434;27;11429;-75
2021/12/02 08:45:26;;;;;;;;;2.75;2.75;;;;;;;;5129448;27;11478;-76
2021/12/02 08:47:52;;;;;;;;;3.25;3.25;;;;;;;;5129569;27;11537;-76
2021/12/02 08:50:18;;;;;;;;;2.25;2.25;;;;;;;;5139107;27;11512;-77
2021/12/02 08:52:44;;;;;;;;;4.00;2.00;;;;;;;;5141122;27;8844;-77
2021/12/02 08:55:10;;;;;;;;;5.25;3.50;;;;;;;;5141291;27;11583;-77
2021/12/02 08:57:36;;;;;;;;;5.75;2.00;;;;;;;;5139140;27;11887;-77
2021/12/02 09:00:03;;;;;;;;;3.25;2.00;;;;;;;;5139515;27;10532;-76
2021/12/02 09:02:28;;;;;;;;;1.00;1.00;;;;;;;;5130781;27;9581;-76
2021/12/02 09:04:54;;;;;;;;;1.50;1.50;;;;;;;;5129755;27;11526;-76
2021/12/02 09:07:19;;;;;;;;;1.50;1.50;;;;;;;;5131459;27;10489;-75
2021/12/02 09:09:44;;;;;;;;;0.50;0.50;;;;;;;;5129984;27;8790;-77
2021/12/02 09:12:10;;;;;;;;;1.00;1.00;;;;;;;;5130049;27;8779;-76
2021/12/02 09:14:36;;;;;;;;;2.50;1.00;;;;;;;;5130907;27;11547;-76
2021/12/02 09:17:02;;;;;;;;;0.25;0.25;;;;;;;;5130012;27;9101;-76
2021/12/02 09:19:27;;;;;;;;;1.00;0.00;;;;;;;;5129989;27;11754;-76
2021/12/02 09:21:53;;;;;;;;;1.00;0.00;;;;;;;;5128789;27;12771;-76
2021/12/02 09:24:18;;;;;;;;;1.00;1.00;;;;;;;;5131318;27;8808;-75
2021/12/02 09:26:48;;;;;;;;;1.00;1.00;;;;;;;;5126464;27;8827;-75
2021/12/02 09:29:14;;;;;;;;;1.25;1.00;;;;;;;;5131044;27;8812;-75
2021/12/02 09:31:40;;;;;;;;;3.25;2.00;;;;;;;;5130595;27;11537;-75
2021/12/02 09:34:05;;;;;;;;;1.50;1.50;;;;;;;;5127950;27;11438;-75
2021/12/02 09:36:32;;;;;;;;;1.00;1.00;;;;;;;;5128126;27;11287;-75
2021/12/02 09:38:57;;;;;;;;;2.00;1.50;;;;;;;;5128948;27;8814;-75
2021/12/02 09:41:22;;;;;;;;;1.00;1.00;;;;;;;;5131064;27;11435;-77
2021/12/02 09:43:48;;;;;;;;;0.25;0.00;;;;;;;;5127909;27;11300;-77
2021/12/02 09:46:13;;;;;;;;;1.00;1.00;;;;;;;;5130411;27;10249;-75
2021/12/02 09:48:38;;;;;;;;;2.00;1.00;;;;;;;;5130772;27;10309;-76
2021/12/02 09:51:08;;;;;;;;;1.75;1.75;;;;;;;;5129082;27;8909;-75
2021/12/02 09:53:39;;;;;;;;;2.75;2.00;;;;;;;;5128690;27;11552;-75
2021/12/02 09:56:15;;;;;;;;;2.00;2.00;;;;;;;;5128819;27;12214;-75
2021/12/02 09:58:41;;;;;;;;;5.00;2.00;;;;;;;;5128712;27;11446;-79
2021/12/02 10:01:12;;;;;;;;;2.75;2.75;;;;;;;;5129982;27;11470;-76
2021/12/02 10:03:41;;;;;;;;;2.00;2.00;;;;;;;;5131251;27;11694;-75
2021/12/02 10:06:09;;;;;;;;;1.00;1.00;;;;;;;;5129791;27;11493;-76
2021/12/02 10:08:37;;;;;;;;;;;;;;;;;;5130332;27;11441;-77
2021/12/02 10:11:06;;;;;;;;;2.25;1.50;;;;;;;;5130261;27;20352;-76
2021/12/02 10:13:36;;;;;;;;;2.25;2.25;;;;;;;;5129908;27;20786;-75
2021/12/02 10:16:09;;;;;;;;;5.00;3.00;;;;;;;;5128636;27;12481;-75
2021/12/02 10:18:36;;;;;;;;;0.50;0.50;;;;;;;;5126598;27;11753;-75
2021/12/02 10:21:18;;;;;;;;;2.00;2.00;;;;;;;;5129218;27;11741;-73
2021/12/02 10:23:47;;;;;;;;;1.00;1.00;;;;;;;;5121043;27;11481;-77
2021/12/02 10:26:13;;;;;;;;;1.00;1.00;;;;;;;;5124865;27;11463;-76
2021/12/02 10:28:42;;;;;;;;;2.00;2.00;;;;;;;;5121451;27;11513;-76
2021/12/02 10:31:08;;;;;;;;;4.00;4.00;;;;;;;;5117966;27;10880;-76
2021/12/02 10:33:39;;;;;;;;;7.00;1.00;;;;;;;;5117227;27;12112;-76
2021/12/02 10:36:07;;;;;;;;;6.25;2.75;;;;;;;;5119091;27;12452;-76
2021/12/02 10:38:38;;;;;;;;;4.25;4.25;;;;;;;;5117606;28;12177;-77
2021/12/02 10:41:07;;;;;;;;;6.00;4.25;;;;;;;;5117636;28;12824;-78
2021/12/02 10:43:33;;;;;;;;;6.00;6.00;;;;;;;;5118790;27;12217;-77
2021/12/02 10:46:12;;;;;;;;;7.25;6.00;;;;;;;;5119139;28;11438;-76
2021/12/02 10:48:44;;;;;;;;;4.50;4.50;;;;;;;;5118776;27;9478;-85
2021/12/02 10:51:10;;;;;;;;;;;;;;;;;;5119593;28;12254;-77
2021/12/02 10:53:55;;;;;;;;;3.50;2.00;;;;;;;;5136507;27;21773;-78
2021/12/02 10:56:31;;;;;;;;;4.25;2.00;;;;;;;;5142458;27;21304;-74
2021/12/02 10:58:57;;;;;;;;;5.25;5.00;;;;;;;;5142609;27;11514;-73
2021/12/02 11:01:39;;;;;;;;;35.00;31.00;;;;;;;;5143362;27;12316;-72
2021/12/02 11:04:06;;;;;;;;;9.00;9.00;;;;;;;;5142147;27;24054;-73
2021/12/02 11:06:45;;;;;;;;;5.25;4.75;;;;;;;;5143035;27;22755;-74
2021/12/02 11:09:23;;;;;;;;;0.50;0.50;;;;;;;;5142110;27;13110;-72
2021/12/02 11:12:09;;;;;;;;;3.50;2.00;;;;;;;;5142554;27;12668;-73
2021/12/02 11:14:51;;;;;;;;;2.00;2.00;;;;;;;;5141207;27;11467;-76
2021/12/02 11:17:17;;;;;;;;;1.75;1.75;;;;;;;;5142966;27;12218;-77
2021/12/02 11:19:44;;;;;;;;;2.00;2.00;;;;;;;;5143185;27;11445;-79
2021/12/02 11:22:12;;;;;;;;;4.75;4.75;;;;;;;;5142505;27;11431;-77
2021/12/02 11:24:39;;;;;;;;;8.75;7.00;;;;;;;;5143295;27;11497;-76
2021/12/02 11:27:11;;;;;;;;;1.75;1.75;;;;;;;;5142333;27;11624;-79
2021/12/02 11:29:46;;;;;;;;;2.00;2.00;;;;;;;;5139501;27;11619;-75
2021/12/02 11:32:22;;;;;;;;;4.75;3.25;;;;;;;;5133333;27;11763;-78
2021/12/02 11:34:47;;;;;;;;;2.75;2.75;;;;;;;;5129913;27;11754;-78
2021/12/02 11:37:13;;;;;;;;;2.00;2.00;;;;;;;;5130659;27;12366;-77
2021/12/02 11:39:40;;;;;;;;;2.00;2.00;;;;;;;;5132080;27;8937;-76
2021/12/02 11:42:06;;;;;;;;;4.25;2.00;;;;;;;;5131882;27;9564;-78
2021/12/02 11:44:32;;;;;;;;;6.00;2.00;;;;;;;;5131523;27;11489;-79
2021/12/02 11:46:59;;;;;;;;;2.00;2.00;;;;;;;;5129014;27;9114;-78
2021/12/02 11:49:24;;;;;;;;;8.75;6.00;;;;;;;;5128643;27;11471;-79
2021/12/02 11:51:50;;;;;;;;;8.00;6.00;;;;;;;;5131683;27;11540;-79
2021/12/02 11:54:15;;;;;;;;;4.50;4.50;;;;;;;;5129999;27;8810;-80
2021/12/02 11:56:40;;;;;;;;;7.00;5.50;;;;;;;;5130685;27;11454;-81
2021/12/02 11:59:06;;;;;;;;;6.25;6.25;;;;;;;;5128546;27;10480;-80
2021/12/02 12:01:31;;;;;;;;;7.00;7.00;;;;;;;;5141372;27;11691;-80
2021/12/02 12:04:07;;;;;;;;;1.00;1.00;;;;;;;;5141141;27;11419;-79
2021/12/02 12:06:33;;;;;;;;;6.50;6.00;;;;;;;;5142203;27;9008;-79
2021/12/02 12:09:00;;;;;;;;;15.00;13.25;;;;;;;;5140926;27;11548;-79
2021/12/02 12:11:30;;;;;;;;;8.50;8.00;;;;;;;;5141616;27;23042;-81
2021/12/02 12:13:57;;;;;;;;;4.00;3.25;;;;;;;;5132781;27;23809;-76
2021/12/02 12:16:24;;;;;;;;;5.50;5.50;;;;;;;;5131538;27;12192;-76
2021/12/02 12:18:49;;;;;;;;;6.50;6.00;;;;;;;;5131985;27;11465;-75
2021/12/02 12:21:14;;;;;;;;;7.75;7.75;;;;;;;;5132064;27;11648;-77
2021/12/02 12:23:57;;;;;;;;;6.50;6.25;;;;;;;;5127326;27;11362;-76
2021/12/02 12:26:25;;;;;;;;;8.50;6.00;;;;;;;;5129123;27;11140;-74
2021/12/02 12:29:06;;;;;;;;;6.00;6.00;;;;;;;;5127863;27;12862;-74
2021/12/02 12:31:31;;;;;;;;;4.00;4.00;;;;;;;;5130014;27;12277;-75
2021/12/02 12:33:59;;;;;;;;;4.00;4.00;;;;;;;;5131497;27;11602;-74
2021/12/02 12:36:40;;;;;;;;;4.00;4.00;;;;;;;;5127907;27;8810;-74
2021/12/02 12:39:19;;;;;;;;;5.25;5.00;;;;;;;;5129494;27;11449;-77
2021/12/02 12:42:06;;;;;;;;;4.00;4.00;;;;;;;;5129469;27;11542;-76
2021/12/02 12:44:58;;;;;;;;;6.75;5.50;;;;;;;;5130339;27;11485;-75
2021/12/02 12:47:42;;;;;;;;;5.00;5.00;;;;;;;;5137897;27;11713;-77
2021/12/02 12:50:22;;;;;;;;;4.50;3.00;;;;;;;;5141070;27;12467;-75
2021/12/02 12:53:06;;;;;;;;;13.75;13.00;;;;;;;;5140593;27;11415;-75
2021/12/02 12:55:33;;;;;;;;;8.00;7.00;;;;;;;;5140256;27;22789;-74
2021/12/02 12:58:12;;;;;;;;;11.00;8.00;;;;;;;;5139945;27;23599;-76
2021/12/02 13:00:43;;;;;;;;;7.75;6.75;;;;;;;;5136778;27;22158;-77
2021/12/02 13:03:12;;;;;;;;;4.00;2.00;;;;;;;;5140999;27;22543;-78
2021/12/02 13:05:56;;;;;;;;;3.00;3.00;;;;;;;;5140590;27;12184;-79
2021/12/02 13:08:38;;;;;;;;;5.00;5.00;;;;;;;;5140823;27;12474;-78
2021/12/02 13:11:11;;;;;;;;;3.00;3.00;;;;;;;;5141114;27;11437;-80
2021/12/02 13:13:37;;;;;;;;;9.25;4.00;;;;;;;;5140352;27;11431;-80
2021/12/02 13:16:18;;;;;;;;;7.75;6.00;;;;;;;;5141165;27;11519;-78
2021/12/02 13:18:45;;;;;;;;;3.25;3.25;;;;;;;;5138860;27;11514;-78
2021/12/02 13:21:17;;;;;;;;;4.50;4.00;;;;;;;;5139248;27;11841;-77
2021/12/02 13:23:53;;;;;;;;;6.75;6.00;;;;;;;;5139987;27;11435;-78
2021/12/02 13:26:19;;;;;;;;;3.50;3.00;;;;;;;;5139555;27;11442;-78
2021/12/02 13:28:46;;;;;;;;;3.00;3.00;;;;;;;;5140973;27;11897;-78
2021/12/02 13:31:12;;;;;;;;;4.00;3.00;;;;;;;;5140874;27;9580;-77
2021/12/02 13:33:41;;;;;;;;;6.75;6.75;;;;;;;;5140127;27;11452;-77
2021/12/02 13:36:08;;;;;;;;;6.50;6.50;;;;;;;;5140800;27;11886;-77
2021/12/02 13:38:33;;;;;;;;;12.00;9.75;;;;;;;;5138528;27;11623;-80
2021/12/02 13:41:19;;;;;;;;;13.00;12.00;;;;;;;;5139880;27;21550;-79
2021/12/02 13:43:56;;;;;;;;;4.00;4.00;;;;;;;;5140460;27;21541;-80
2021/12/02 13:46:29;;;;;;;;;8.00;7.75;;;;;;;;5139384;27;22861;-78
2021/12/02 13:48:55;;;;;;;;;6.00;6.00;;;;;;;;5140617;27;11541;-81
2021/12/02 13:54:18;;;;;;;;;3.75;3.75;;;;;;;;5140128;27;11394;-77
2021/12/02 13:56:43;;;;;;;;;6.50;6.00;;;;;;;;5139202;27;12054;-77
2021/12/02 13:59:16;;;;;;;;;4.00;4.00;;;;;;;;5139819;27;11430;-78
2021/12/02 14:02:08;;;;;;;;;5.50;4.00;;;;;;;;5138700;27;10805;-77
2021/12/02 14:04:43;;;;;;;;;3.75;3.25;;;;;;;;5136174;27;11431;-78
2021/12/02 14:07:11;;;;;;;;;3.75;3.25;;;;;;;;5136235;27;13556;-76
2021/12/02 14:09:47;;;;;;;;;4.00;3.25;;;;;;;;5128760;27;11441;-79
2021/12/02 14:12:13;;;;;;;;;3.00;3.00;;;;;;;;5127651;27;12381;-79
2021/12/02 14:14:52;;;;;;;;;5.00;5.00;;;;;;;;5128174;27;11863;-79
2021/12/02 14:17:18;;;;;;;;;4.00;4.00;;;;;;;;5128110;27;8837;-76
2021/12/02 14:20:03;;;;;;;;;6.00;3.00;;;;;;;;5126921;27;11618;-76
2021/12/02 14:22:29;;;;;;;;;4.00;4.00;;;;;;;;5129688;27;9566;-80
2021/12/02 14:24:55;;;;;;;;;3.25;3.00;;;;;;;;5128562;27;11454;-82
2021/12/02 14:27:20;;;;;;;;;2.75;2.50;;;;;;;;5128795;27;11480;-78
2021/12/02 14:29:45;;;;;;;;;1.50;1.00;;;;;;;;5127736;27;11306;-77
2021/12/02 14:32:11;;;;;;;;;4.00;3.00;;;;;;;;5127750;27;11273;-75
2021/12/02 14:34:36;;;;;;;;;3.75;3.75;;;;;;;;5138187;27;10255;-76
2021/12/02 14:37:01;;;;;;;;;2.00;2.00;;;;;;;;5132058;27;11296;-75
2021/12/02 14:39:29;;;;;;;;;3.25;3.00;;;;;;;;5130986;27;11690;-75
2021/12/02 14:41:59;;;;;;;;;4.00;2.50;;;;;;;;5132557;27;10654;-75
2021/12/02 14:44:26;;;;;;;;;4.00;3.00;;;;;;;;5130398;27;12564;-75
2021/12/02 14:46:57;;;;;;;;;5.50;5.50;;;;;;;;5131961;27;11532;-75
2021/12/02 14:49:30;;;;;;;;;5.00;5.00;;;;;;;;5131184;27;13002;-75
2021/12/02 14:51:56;;;;;;;;;3.00;3.00;;;;;;;;5130661;27;11444;-75
2021/12/02 14:54:40;;;;;;;;;5.50;5.50;;;;;;;;5133479;27;11465;-75
2021/12/02 14:57:12;;;;;;;;;6.50;4.00;;;;;;;;5130935;27;12689;-75
2021/12/02 14:59:38;;;;;;;;;7.00;6.00;;;;;;;;5130574;27;15116;-75
2021/12/02 15:02:03;;;;;;;;;5.75;4.00;;;;;;;;5132384;27;11484;-74
2021/12/02 15:04:50;;;;;;;;;3.75;3.75;;;;;;;;5132932;27;11544;-75
2021/12/02 15:07:21;;;;;;;;;4.00;3.00;;;;;;;;5132068;27;11465;-75
2021/12/02 15:09:50;;;;;;;;;3.75;3.00;;;;;;;;5131255;27;11423;-74
2021/12/02 15:12:19;;;;;;;;;4.50;3.75;;;;;;;;5130839;27;11466;-75
2021/12/02 15:14:47;;;;;;;;;3.75;3.25;;;;;;;;5131322;27;13918;-75
2021/12/02 15:17:13;;;;;;;;;3.25;3.00;;;;;;;;5129397;27;11459;-74